Time;durP1;ratioP1;P1;durP2;ratioP2;P2;SDS_P1;SDS_P2;PMS_P1;PMS_P2;Temp;Humidity;BMP_temperature;BMP_pressure;BME280_temperature;BME280_humidity;BME280_pressure;Samples;Min_cycle;Max_cycle;Signal;HPM_P1;HPM_P2
2022/09/15 00:02:21;;;;;;;19.17;10.70;;;;;;;;;;4948070;28;20043;-67
2022/09/15 00:04:47;;;;;;;19.48;10.70;;;;;;;;;;4948888;28;20066;-68
2022/09/15 00:07:14;;;;;;;19.40;10.60;;;;;;;;;;4958883;28;20031;-65
2022/09/15 00:09:41;;;;;;;24.48;11.20;;;;;;;;;;4949507;28;20489;-66
2022/09/15 00:12:08;;;;;;;21.90;10.05;;;;;;;;;;4952144;28;20073;-68
2022/09/15 00:14:34;;;;;;;18.95;10.55;;;;;;;;;;4946552;28;20055;-67
2022/09/15 00:17:01;;;;;;;23.75;10.82;;;;;;;;;;4949219;28;20546;-66
2022/09/15 00:19:27;;;;;;;21.80;10.55;;;;;;;;;;4942657;28;20208;-67
2022/09/15 00:21:54;;;;;;;22.45;10.40;;;;;;;;;;4946151;28;20043;-66
2022/09/15 00:24:21;;;;;;;21.95;10.25;;;;;;;;;;4944403;28;20043;-67
2022/09/15 00:26:47;;;;;;;22.67;11.27;;;;;;;;;;4943464;28;20139;-67
2022/09/15 00:29:14;;;;;;;25.08;10.43;;;;;;;;;;4948387;28;20046;-66
2022/09/15 00:31:40;;;;;;;22.55;10.93;;;;;;;;;;4944639;28;20117;-66
2022/09/15 00:34:07;;;;;;;23.35;11.18;;;;;;;;;;4946921;28;20050;-66
2022/09/15 00:36:34;;;;;;;23.23;10.65;;;;;;;;;;4947942;28;20054;-66
2022/09/15 00:39:00;;;;;;;21.15;10.93;;;;;;;;;;4946024;28;20119;-65
2022/09/15 00:41:27;;;;;;;24.40;11.10;;;;;;;;;;4946962;28;20083;-67
2022/09/15 00:43:54;;;;;;;23.42;10.70;;;;;;;;;;4948396;28;20035;-65
2022/09/15 00:46:23;;;;;;;20.08;11.00;;;;;;;;;;4948445;28;20058;-68
2022/09/15 00:48:55;;;;;;;22.90;10.52;;;;;;;;;;4947334;28;20141;-65
2022/09/15 00:51:28;;;;;;;20.73;11.10;;;;;;;;;;4945753;28;20048;-66
2022/09/15 00:54:18;;;;;;;26.17;10.93;;;;;;;;;;4957993;28;20125;-66
2022/09/15 00:56:46;;;;;;;20.65;10.55;;;;;;;;;;4960174;28;20233;-67
2022/09/15 00:59:16;;;;;;;24.10;11.63;;;;;;;;;;4961579;28;20039;-67
2022/09/15 01:01:43;;;;;;;21.17;11.32;;;;;;;;;;4961875;28;20152;-67
2022/09/15 01:04:11;;;;;;;24.75;10.98;;;;;;;;;;4960211;28;20062;-66
2022/09/15 01:06:41;;;;;;;23.48;12.00;;;;;;;;;;4960159;28;20511;-65
2022/09/15 01:09:12;;;;;;;20.42;11.57;;;;;;;;;;4959215;28;20051;-65
2022/09/15 01:11:39;;;;;;;24.02;11.95;;;;;;;;;;4948493;28;20038;-67
2022/09/15 01:14:06;;;;;;;25.42;11.65;;;;;;;;;;4948487;28;20047;-67
2022/09/15 01:16:55;;;;;;;21.30;10.95;;;;;;;;;;4965422;28;21724;-65
2022/09/15 01:19:36;;;;;;;19.23;11.00;;;;;;;;;;4976345;28;20045;-67
2022/09/15 01:22:14;;;;;;;24.02;10.93;;;;;;;;;;4973981;28;20125;-66
2022/09/15 01:24:43;;;;;;;20.08;11.15;;;;;;;;;;4967098;28;20613;-65
2022/09/15 01:27:28;;;;;;;23.23;11.18;;;;;;;;;;4942924;28;20396;-64
2022/09/15 01:30:04;;;;;;;23.27;11.10;;;;;;;;;;4944182;28;20063;-67
2022/09/15 01:33:04;;;;;;;21.85;11.30;;;;;;;;;;4960733;28;20054;-66
2022/09/15 01:35:34;;;;;;;26.50;11.63;;;;;;;;;;4945125;28;20047;-66
2022/09/15 01:38:07;;;;;;;17.42;10.65;;;;;;;;;;4945030;28;20039;-71
2022/09/15 01:40:41;;;;;;;21.23;11.02;;;;;;;;;;4943890;28;20063;-68
2022/09/15 01:43:09;;;;;;;19.88;11.27;;;;;;;;;;4954970;28;20050;-65
2022/09/15 01:45:38;;;;;;;28.65;12.05;;;;;;;;;;4945648;28;20118;-64
2022/09/15 01:48:06;;;;;;;26.75;12.25;;;;;;;;;;4944675;28;20090;-64
2022/09/15 01:50:42;;;;;;;19.52;11.27;;;;;;;;;;4942565;28;20043;-65
2022/09/15 01:53:11;;;;;;;20.20;10.68;;;;;;;;;;4944361;28;20043;-65
2022/09/15 01:55:42;;;;;;;21.98;12.02;;;;;;;;;;4959552;28;20506;-65
2022/09/15 01:58:09;;;;;;;18.45;10.90;;;;;;;;;;4943107;28;20044;-65
2022/09/15 02:00:38;;;;;;;20.00;11.23;;;;;;;;;;4940154;28;20047;-65
2022/09/15 02:03:10;;;;;;;22.70;10.73;;;;;;;;;;4943149;28;20034;-64
2022/09/15 02:05:43;;;;;;;26.92;11.82;;;;;;;;;;4941845;28;20067;-64
2022/09/15 02:08:24;;;;;;;19.73;11.20;;;;;;;;;;4941635;28;20043;-66
2022/09/15 02:11:00;;;;;;;25.42;11.20;;;;;;;;;;4962041;28;20077;-64
2022/09/15 02:13:33;;;;;;;25.98;11.32;;;;;;;;;;4941186;28;20046;-65
2022/09/15 02:16:01;;;;;;;27.73;13.02;;;;;;;;;;4954732;28;20162;-65
2022/09/15 02:18:33;;;;;;;26.38;12.95;;;;;;;;;;4943321;28;20046;-64
2022/09/15 02:21:10;;;;;;;27.60;12.23;;;;;;;;;;4948504;28;20063;-65
2022/09/15 02:23:42;;;;;;;24.23;11.80;;;;;;;;;;4942127;28;20047;-63
2022/09/15 02:26:12;;;;;;;25.98;11.90;;;;;;;;;;4942257;28;20400;-64
2022/09/15 02:28:40;;;;;;;25.10;12.35;;;;;;;;;;4943079;28;20039;-67
2022/09/15 02:31:08;;;;;;;22.10;11.93;;;;;;;;;;4943024;28;20126;-65
2022/09/15 02:33:37;;;;;;;23.17;12.48;;;;;;;;;;4944623;28;20035;-64
2022/09/15 02:36:04;;;;;;;22.48;12.50;;;;;;;;;;4945226;28;20059;-62
2022/09/15 02:38:34;;;;;;;31.90;12.38;;;;;;;;;;4942096;28;20079;-64
2022/09/15 02:41:01;;;;;;;23.67;12.38;;;;;;;;;;4942195;28;20685;-66
2022/09/15 02:43:28;;;;;;;25.77;12.23;;;;;;;;;;4942900;28;20043;-65
2022/09/15 02:45:55;;;;;;;31.65;13.65;;;;;;;;;;4941629;28;20050;-66
2022/09/15 02:48:22;;;;;;;25.17;11.98;;;;;;;;;;4942156;28;20131;-65
2022/09/15 02:50:49;;;;;;;18.88;11.43;;;;;;;;;;4942234;28;20035;-65
2022/09/15 02:53:15;;;;;;;21.73;11.18;;;;;;;;;;4942393;28;20431;-66
2022/09/15 02:55:42;;;;;;;22.38;11.68;;;;;;;;;;4941422;28;20078;-65
2022/09/15 02:58:08;;;;;;;27.58;11.50;;;;;;;;;;4942330;28;20051;-66
2022/09/15 03:00:37;;;;;;;26.40;11.82;;;;;;;;;;4943497;28;20179;-64
2022/09/15 03:03:03;;;;;;;27.98;11.80;;;;;;;;;;4943666;28;20129;-68
2022/09/15 03:05:30;;;;;;;22.42;11.57;;;;;;;;;;4945185;28;20044;-66
2022/09/15 03:07:57;;;;;;;19.08;11.35;;;;;;;;;;4945278;28;20250;-66
2022/09/15 03:10:24;;;;;;;25.35;12.05;;;;;;;;;;4943973;28;21123;-69
2022/09/15 03:12:52;;;;;;;23.10;11.82;;;;;;;;;;4943056;28;20039;-67
2022/09/15 03:15:20;;;;;;;22.10;11.48;;;;;;;;;;4944736;28;20109;-66
2022/09/15 03:17:49;;;;;;;24.92;11.50;;;;;;;;;;4942404;28;20057;-67
2022/09/15 03:20:20;;;;;;;22.63;11.63;;;;;;;;;;4941757;28;20040;-66
2022/09/15 03:22:47;;;;;;;27.88;10.93;;;;;;;;;;4942836;28;20158;-68
2022/09/15 03:25:13;;;;;;;27.00;11.75;;;;;;;;;;4940990;28;20058;-67
2022/09/15 03:27:41;;;;;;;21.05;10.10;;;;;;;;;;4944207;28;20147;-66
2022/09/15 03:30:08;;;;;;;21.38;11.38;;;;;;;;;;4946155;28;20155;-67
2022/09/15 03:32:35;;;;;;;25.52;11.18;;;;;;;;;;4946153;28;20469;-67
2022/09/15 03:35:02;;;;;;;20.40;11.05;;;;;;;;;;4945683;28;20047;-67
2022/09/15 03:37:29;;;;;;;34.50;10.75;;;;;;;;;;4944998;28;20764;-67
2022/09/15 03:39:55;;;;;;;25.48;10.98;;;;;;;;;;4944456;28;20035;-67
2022/09/15 03:42:22;;;;;;;29.33;10.38;;;;;;;;;;4942914;28;20784;-67
2022/09/15 03:44:49;;;;;;;21.88;10.68;;;;;;;;;;4944472;28;20041;-69
2022/09/15 03:47:16;;;;;;;25.05;11.73;;;;;;;;;;4956622;28;20035;-66
2022/09/15 03:49:43;;;;;;;24.63;11.48;;;;;;;;;;4942015;28;20059;-65
2022/09/15 03:52:09;;;;;;;22.30;11.07;;;;;;;;;;4944161;28;20094;-67
2022/09/15 03:54:36;;;;;;;29.65;11.13;;;;;;;;;;4942141;28;20059;-68
2022/09/15 03:57:03;;;;;;;24.65;10.35;;;;;;;;;;4942782;28;21957;-67
2022/09/15 03:59:29;;;;;;;26.70;10.40;;;;;;;;;;4956064;28;20034;-68
2022/09/15 04:01:56;;;;;;;34.25;11.00;;;;;;;;;;4946502;28;20035;-66
2022/09/15 04:04:22;;;;;;;22.20;10.90;;;;;;;;;;4942292;28;20139;-66
2022/09/15 04:06:49;;;;;;;25.33;11.20;;;;;;;;;;4954859;28;20485;-69
2022/09/15 04:09:15;;;;;;;22.30;11.15;;;;;;;;;;4939821;28;20134;-69
2022/09/15 04:11:42;;;;;;;24.80;10.82;;;;;;;;;;4946032;28;20054;-67
2022/09/15 04:14:09;;;;;;;22.77;10.38;;;;;;;;;;4942381;28;20055;-70
2022/09/15 04:16:35;;;;;;;26.20;10.90;;;;;;;;;;4942094;28;20047;-66
2022/09/15 04:19:02;;;;;;;25.73;12.02;;;;;;;;;;4957104;28;20448;-66
2022/09/15 04:21:30;;;;;;;23.27;10.93;;;;;;;;;;4949979;28;20031;-66
2022/09/15 04:23:57;;;;;;;29.15;11.38;;;;;;;;;;4947901;28;21052;-66
2022/09/15 04:26:23;;;;;;;27.10;10.98;;;;;;;;;;4947481;28;20044;-69
2022/09/15 04:28:50;;;;;;;20.33;10.60;;;;;;;;;;4958374;28;20074;-68
2022/09/15 04:31:17;;;;;;;22.17;9.98;;;;;;;;;;4945634;28;20090;-68
2022/09/15 04:33:44;;;;;;;20.08;9.40;;;;;;;;;;4956757;28;20404;-66
2022/09/15 04:36:12;;;;;;;25.27;10.98;;;;;;;;;;4962038;28;20044;-67
2022/09/15 04:38:39;;;;;;;25.83;10.57;;;;;;;;;;4950155;28;20134;-68
2022/09/15 04:41:06;;;;;;;30.35;11.05;;;;;;;;;;4952358;28;20094;-68
2022/09/15 04:43:33;;;;;;;28.08;10.55;;;;;;;;;;4957397;28;20043;-68
2022/09/15 04:45:59;;;;;;;23.45;11.05;;;;;;;;;;4955436;28;20106;-67
2022/09/15 04:48:26;;;;;;;26.17;10.15;;;;;;;;;;4948378;28;20102;-67
2022/09/15 04:50:53;;;;;;;21.27;10.32;;;;;;;;;;4952439;28;21100;-67
2022/09/15 04:53:20;;;;;;;24.58;10.18;;;;;;;;;;4951194;28;20099;-68
2022/09/15 04:55:47;;;;;;;31.27;10.90;;;;;;;;;;4965664;28;20051;-68
2022/09/15 04:58:13;;;;;;;25.85;11.65;;;;;;;;;;4951613;28;20032;-68
2022/09/15 05:00:44;;;;;;;22.17;10.38;;;;;;;;;;4950559;28;20039;-67
2022/09/15 05:03:12;;;;;;;26.05;10.80;;;;;;;;;;4953394;28;20086;-67
2022/09/15 05:05:39;;;;;;;20.73;10.65;;;;;;;;;;4950544;28;20043;-67
2022/09/15 05:08:06;;;;;;;28.08;11.35;;;;;;;;;;4958614;28;20039;-68
2022/09/15 05:10:32;;;;;;;22.85;11.13;;;;;;;;;;4946788;28;20602;-69
2022/09/15 05:12:59;;;;;;;27.83;11.35;;;;;;;;;;4961224;28;20035;-67
2022/09/15 05:15:26;;;;;;;23.27;10.77;;;;;;;;;;4955797;28;20098;-67
2022/09/15 05:17:52;;;;;;;21.08;10.55;;;;;;;;;;4944392;28;20035;-68
2022/09/15 05:20:19;;;;;;;23.02;10.85;;;;;;;;;;4942978;28;20046;-68
2022/09/15 05:22:46;;;;;;;19.88;9.90;;;;;;;;;;4943438;28;20071;-67
2022/09/15 05:25:12;;;;;;;26.95;10.23;;;;;;;;;;4961028;28;20050;-68
2022/09/15 05:27:39;;;;;;;26.13;11.38;;;;;;;;;;4945737;28;20053;-67
2022/09/15 05:30:06;;;;;;;20.63;10.57;;;;;;;;;;4947443;28;20046;-67
2022/09/15 05:32:33;;;;;;;23.42;10.10;;;;;;;;;;4945612;28;20388;-67
2022/09/15 05:35:00;;;;;;;26.15;10.48;;;;;;;;;;4948126;28;20054;-68
2022/09/15 05:37:26;;;;;;;20.83;9.60;;;;;;;;;;4958564;28;20619;-69
2022/09/15 05:39:53;;;;;;;24.90;9.70;;;;;;;;;;4960717;28;20062;-66
2022/09/15 05:42:20;;;;;;;20.92;9.75;;;;;;;;;;4950009;28;20047;-68
2022/09/15 05:44:46;;;;;;;20.98;8.95;;;;;;;;;;4965015;28;20066;-69
2022/09/15 05:47:13;;;;;;;23.10;9.98;;;;;;;;;;4949726;28;20049;-68
2022/09/15 05:49:40;;;;;;;27.67;10.18;;;;;;;;;;4948334;28;20047;-68
2022/09/15 05:52:06;;;;;;;27.73;9.40;;;;;;;;;;4956168;28;20042;-67
2022/09/15 05:54:33;;;;;;;20.33;9.27;;;;;;;;;;4967478;28;20038;-70
2022/09/15 05:56:59;;;;;;;19.17;9.23;;;;;;;;;;4953758;28;20326;-69
2022/09/15 05:59:27;;;;;;;23.90;9.82;;;;;;;;;;4948521;28;20042;-69
2022/09/15 06:01:54;;;;;;;26.45;9.45;;;;;;;;;;4947812;28;20042;-66
2022/09/15 06:04:20;;;;;;;20.50;9.10;;;;;;;;;;4943659;28;20036;-68
2022/09/15 06:06:47;;;;;;;23.00;8.75;;;;;;;;;;4948315;28;20039;-69
2022/09/15 06:09:14;;;;;;;19.85;9.00;;;;;;;;;;4945242;28;20039;-69
2022/09/15 06:11:41;;;;;;;29.15;9.32;;;;;;;;;;4942566;28;20142;-66
2022/09/15 06:14:08;;;;;;;23.70;9.10;;;;;;;;;;4946266;28;20066;-68
2022/09/15 06:16:35;;;;;;;21.30;9.40;;;;;;;;;;4948154;28;20102;-68
2022/09/15 06:19:02;;;;;;;20.23;9.15;;;;;;;;;;4946031;28;20038;-68
2022/09/15 06:21:29;;;;;;;21.08;9.52;;;;;;;;;;4945287;28;20050;-68
2022/09/15 06:23:57;;;;;;;25.90;9.73;;;;;;;;;;4945111;28;20035;-68
2022/09/15 06:26:24;;;;;;;19.05;8.52;;;;;;;;;;4946907;28;20146;-68
2022/09/15 06:28:52;;;;;;;18.75;8.75;;;;;;;;;;4943916;28;20039;-68
2022/09/15 06:31:19;;;;;;;20.80;9.40;;;;;;;;;;4946955;28;20441;-68
2022/09/15 06:33:47;;;;;;;25.73;8.43;;;;;;;;;;4944966;28;20130;-67
2022/09/15 06:36:15;;;;;;;17.60;8.43;;;;;;;;;;4944294;28;20050;-67
2022/09/15 06:38:42;;;;;;;23.70;9.18;;;;;;;;;;4943856;28;20035;-68
2022/09/15 06:41:09;;;;;;;24.80;9.43;;;;;;;;;;4946497;28;20102;-68
2022/09/15 06:43:36;;;;;;;20.73;9.68;;;;;;;;;;4943447;28;20036;-68
2022/09/15 06:46:07;;;;;;;18.05;8.55;;;;;;;;;;4944023;28;20041;-69
2022/09/15 06:48:34;;;;;;;23.02;9.93;;;;;;;;;;4942365;28;20039;-70
2022/09/15 06:51:01;;;;;;;24.85;8.32;;;;;;;;;;4958532;28;20070;-69
2022/09/15 06:53:29;;;;;;;20.52;8.13;;;;;;;;;;4939647;28;20607;-68
2022/09/15 06:55:56;;;;;;;20.15;8.77;;;;;;;;;;4944166;28;20051;-68
2022/09/15 06:58:23;;;;;;;16.20;8.43;;;;;;;;;;4947368;28;20030;-67
2022/09/15 07:00:49;;;;;;;21.38;8.60;;;;;;;;;;4945070;28;20467;-66
2022/09/15 07:03:16;;;;;;;22.45;8.95;;;;;;;;;;4945539;28;20141;-68
2022/09/15 07:05:45;;;;;;;15.48;8.77;;;;;;;;;;4974389;28;20039;-67
2022/09/15 07:08:13;;;;;;;18.77;9.10;;;;;;;;;;4973789;28;20039;-68
2022/09/15 07:10:42;;;;;;;22.77;9.30;;;;;;;;;;4969559;28;20058;-68
2022/09/15 07:13:09;;;;;;;19.10;8.25;;;;;;;;;;4974023;28;20149;-68
2022/09/15 07:15:36;;;;;;;19.25;8.35;;;;;;;;;;4971871;28;20069;-69
2022/09/15 07:18:02;;;;;;;15.30;8.15;;;;;;;;;;4971281;28;20039;-69
2022/09/15 07:20:29;;;;;;;17.70;8.80;;;;;;;;;;4970284;28;20049;-69
2022/09/15 07:22:55;;;;;;;17.45;8.75;;;;;;;;;;4972300;28;20065;-69
2022/09/15 07:25:22;;;;;;;19.58;8.90;;;;;;;;;;4971705;28;20049;-69
2022/09/15 07:27:49;;;;;;;37.55;9.48;;;;;;;;;;4970640;28;20043;-68
2022/09/15 07:30:15;;;;;;;22.20;8.73;;;;;;;;;;4970923;28;20038;-68
2022/09/15 07:32:42;;;;;;;21.58;9.13;;;;;;;;;;4971263;28;20045;-68
2022/09/15 07:35:09;;;;;;;20.23;8.68;;;;;;;;;;4974046;28;20053;-68
2022/09/15 07:37:35;;;;;;;19.13;8.55;;;;;;;;;;4968791;28;20125;-68
2022/09/15 07:40:02;;;;;;;22.10;9.40;;;;;;;;;;4970155;28;20041;-69
2022/09/15 07:42:29;;;;;;;20.40;8.93;;;;;;;;;;4961278;28;20046;-68
2022/09/15 07:44:55;;;;;;;24.92;9.43;;;;;;;;;;4940200;28;20047;-68
2022/09/15 07:47:22;;;;;;;22.10;9.25;;;;;;;;;;4941753;28;20607;-68
2022/09/15 07:49:49;;;;;;;25.45;8.88;;;;;;;;;;4941649;28;20048;-68
2022/09/15 07:52:16;;;;;;;25.15;9.07;;;;;;;;;;4958879;28;20046;-68
2022/09/15 07:54:42;;;;;;;24.23;8.95;;;;;;;;;;4946811;28;20078;-68
2022/09/15 07:57:09;;;;;;;28.70;9.02;;;;;;;;;;4947531;28;20036;-68
2022/09/15 07:59:35;;;;;;;25.27;9.25;;;;;;;;;;4960302;28;20047;-68
2022/09/15 08:02:02;;;;;;;22.48;8.15;;;;;;;;;;4946006;28;20270;-69
2022/09/15 08:04:29;;;;;;;29.05;9.98;;;;;;;;;;4957146;28;20104;-70
2022/09/15 08:06:55;;;;;;;24.17;9.32;;;;;;;;;;4944283;28;20051;-69
2022/09/15 08:09:22;;;;;;;19.83;8.20;;;;;;;;;;4941134;28;20039;-69
2022/09/15 08:11:48;;;;;;;19.58;8.43;;;;;;;;;;4946786;28;20086;-68
2022/09/15 08:14:15;;;;;;;16.75;8.45;;;;;;;;;;4962938;28;20125;-68
2022/09/15 08:16:42;;;;;;;17.05;8.98;;;;;;;;;;4946744;28;20589;-68
2022/09/15 08:19:08;;;;;;;23.30;9.27;;;;;;;;;;4945708;28;20835;-69
2022/09/15 08:21:35;;;;;;;19.88;8.68;;;;;;;;;;4946719;28;20160;-69
2022/09/15 08:24:01;;;;;;;18.15;8.23;;;;;;;;;;4943944;28;20922;-68
2022/09/15 08:26:29;;;;;;;21.10;8.20;;;;;;;;;;4956900;28;20073;-69
2022/09/15 08:28:56;;;;;;;25.63;8.70;;;;;;;;;;4944912;28;20043;-69
2022/09/15 08:31:23;;;;;;;18.55;8.88;;;;;;;;;;4961101;28;20063;-67
2022/09/15 08:33:50;;;;;;;20.92;9.27;;;;;;;;;;4947146;28;20042;-67
2022/09/15 08:36:18;;;;;;;23.65;8.27;;;;;;;;;;4947769;28;20174;-68
2022/09/15 08:38:45;;;;;;;20.30;8.77;;;;;;;;;;4944463;28;20038;-67
2022/09/15 08:41:14;;;;;;;18.88;8.32;;;;;;;;;;4944238;28;20035;-68
2022/09/15 08:43:45;;;;;;;20.58;8.52;;;;;;;;;;4946757;28;20057;-69
2022/09/15 08:46:15;;;;;;;21.67;8.60;;;;;;;;;;4944977;28;20803;-69
2022/09/15 08:48:46;;;;;;;20.55;8.38;;;;;;;;;;4944494;28;20051;-68
2022/09/15 08:51:17;;;;;;;22.83;9.07;;;;;;;;;;4944993;28;20045;-69
2022/09/15 08:53:46;;;;;;;24.58;8.85;;;;;;;;;;4943568;28;20051;-68
2022/09/15 08:56:16;;;;;;;18.33;8.23;;;;;;;;;;4943000;28;20569;-69
2022/09/15 08:58:43;;;;;;;21.55;8.32;;;;;;;;;;4945217;28;20903;-68
2022/09/15 09:01:21;;;;;;;22.63;8.85;;;;;;;;;;4959888;28;20039;-67
2022/09/15 09:03:48;;;;;;;24.70;8.55;;;;;;;;;;4958856;28;20101;-68
2022/09/15 09:06:15;;;;;;;30.52;9.18;;;;;;;;;;4945076;28;20046;-69
2022/09/15 09:08:44;;;;;;;21.95;8.70;;;;;;;;;;4957074;28;20043;-70
2022/09/15 09:11:18;;;;;;;20.80;8.55;;;;;;;;;;4957355;28;20331;-69
2022/09/15 09:14:07;;;;;;;23.52;8.75;;;;;;;;;;4943633;28;20058;-69
2022/09/15 09:16:41;;;;;;;18.25;8.80;;;;;;;;;;4943936;28;20500;-69
2022/09/15 09:19:25;;;;;;;19.67;8.57;;;;;;;;;;4943748;28;20139;-67
2022/09/15 09:22:13;;;;;;;21.73;8.77;;;;;;;;;;4941705;28;20042;-70
2022/09/15 09:24:43;;;;;;;25.80;8.95;;;;;;;;;;4942394;28;20067;-68
2022/09/15 09:27:37;;;;;;;25.05;8.25;;;;;;;;;;4944269;28;20051;-67
2022/09/15 09:30:12;;;;;;;26.27;8.20;;;;;;;;;;4942729;28;20138;-67
2022/09/15 09:32:58;;;;;;;21.35;8.98;;;;;;;;;;4944111;28;20062;-68
2022/09/15 09:35:44;;;;;;;21.40;9.05;;;;;;;;;;4944934;28;20418;-67
2022/09/15 09:38:12;;;;;;;17.98;8.18;;;;;;;;;;4958529;28;20046;-67
2022/09/15 09:40:40;;;;;;;18.52;8.43;;;;;;;;;;4944556;28;20119;-69
2022/09/15 09:43:09;;;;;;;23.73;9.20;;;;;;;;;;4957795;28;20126;-68
2022/09/15 09:45:36;;;;;;;19.67;8.77;;;;;;;;;;4956362;28;20044;-68
2022/09/15 09:48:14;;;;;;;18.70;8.50;;;;;;;;;;4943834;28;20049;-68
2022/09/15 09:50:43;;;;;;;19.50;8.85;;;;;;;;;;4941583;28;20054;-68
2022/09/15 09:53:16;;;;;;;20.90;9.13;;;;;;;;;;4944103;28;20047;-67
2022/09/15 09:55:44;;;;;;;24.20;8.50;;;;;;;;;;4957593;28;20050;-67
2022/09/15 09:58:29;;;;;;;23.25;8.20;;;;;;;;;;4942652;28;20039;-68
2022/09/15 10:01:08;;;;;;;24.23;8.25;;;;;;;;;;4957279;28;20043;-67
2022/09/15 10:03:36;;;;;;;22.67;8.52;;;;;;;;;;4940964;28;20054;-69
2022/09/15 10:06:06;;;;;;;18.98;8.52;;;;;;;;;;4943445;28;20074;-68
2022/09/15 10:08:32;;;;;;;16.25;8.48;;;;;;;;;;4942708;28;20047;-68
2022/09/15 10:11:03;;;;;;;21.77;8.18;;;;;;;;;;4944551;28;20075;-68
2022/09/15 10:13:30;;;;;;;23.83;9.07;;;;;;;;;;4965139;28;20442;-68
2022/09/15 10:16:01;;;;;;;20.65;8.15;;;;;;;;;;4943726;28;20058;-66
2022/09/15 10:18:37;;;;;;;18.95;8.88;;;;;;;;;;4939230;28;20051;-67
2022/09/15 10:21:05;;;;;;;18.95;8.60;;;;;;;;;;4944302;28;20045;-67
2022/09/15 10:23:33;;;;;;;23.70;8.57;;;;;;;;;;4942957;28;20076;-67
2022/09/15 10:26:15;;;;;;;19.50;8.77;;;;;;;;;;4945071;28;20113;-67
2022/09/15 10:28:42;;;;;;;17.40;8.55;;;;;;;;;;4941914;28;20039;-68
2022/09/15 10:31:10;;;;;;;25.05;9.15;;;;;;;;;;4946107;28;20342;-68
2022/09/15 10:33:38;;;;;;;27.42;9.07;;;;;;;;;;4957091;28;20089;-68
2022/09/15 10:36:17;;;;;;;22.30;9.45;;;;;;;;;;4943315;28;20126;-68
2022/09/15 10:38:48;;;;;;;22.17;9.52;;;;;;;;;;4942228;28;20162;-68
2022/09/15 10:41:28;;;;;;;23.58;8.63;;;;;;;;;;4939843;28;20039;-69
2022/09/15 10:44:03;;;;;;;19.15;8.93;;;;;;;;;;4974719;28;20724;-67
2022/09/15 10:46:29;;;;;;;20.15;9.02;;;;;;;;;;4956485;28;20058;-68
2022/09/15 10:49:14;;;;;;;17.80;9.18;;;;;;;;;;4942073;28;20109;-68
2022/09/15 10:51:41;;;;;;;17.17;8.75;;;;;;;;;;4943424;28;20149;-68
2022/09/15 10:54:29;;;;;;;22.70;9.48;;;;;;;;;;4956017;28;20053;-69
2022/09/15 10:57:19;;;;;;;18.38;9.70;;;;;;;;;;4969404;28;20054;-69
2022/09/15 10:59:52;;;;;;;20.67;9.38;;;;;;;;;;4957134;28;20047;-68
2022/09/15 11:02:18;;;;;;;;;;;;;;;;;;4958785;28;20051;-68
2022/09/15 11:05:04;;;;;;;19.23;9.18;;;;;;;;;;4939699;28;20017;-68
2022/09/15 11:07:40;;;;;;;24.15;10.10;;;;;;;;;;4946122;28;20035;-69
2022/09/15 11:10:10;;;;;;;21.17;9.40;;;;;;;;;;4954123;28;20927;-68
2022/09/15 11:12:48;;;;;;;19.70;9.10;;;;;;;;;;4958250;28;20054;-69
2022/09/15 11:15:34;;;;;;;19.58;10.05;;;;;;;;;;4945555;28;20066;-70
2022/09/15 11:18:19;;;;;;;19.38;9.70;;;;;;;;;;4942131;28;20048;-68
2022/09/15 11:21:01;;;;;;;20.33;10.35;;;;;;;;;;4941948;28;20046;-69
2022/09/15 11:23:31;;;;;;;27.98;10.38;;;;;;;;;;4969683;28;20361;-67
2022/09/15 11:26:03;;;;;;;19.85;9.43;;;;;;;;;;4944500;28;20479;-67
2022/09/15 11:28:41;;;;;;;27.30;9.73;;;;;;;;;;4954446;28;20066;-68
2022/09/15 11:31:19;;;;;;;21.80;10.88;;;;;;;;;;4953299;28;20047;-68
2022/09/15 11:33:51;;;;;;;25.85;10.93;;;;;;;;;;4973068;28;20057;-69
2022/09/15 11:36:20;;;;;;;22.45;11.45;;;;;;;;;;4967422;28;20051;-66
2022/09/15 11:39:05;;;;;;;27.83;11.52;;;;;;;;;;4940564;28;20042;-70
2022/09/15 11:41:39;;;;;;;25.02;11.50;;;;;;;;;;4943772;28;20048;-67
2022/09/15 11:44:21;;;;;;;26.08;11.40;;;;;;;;;;4940313;28;20091;-68
2022/09/15 11:47:06;;;;;;;24.08;10.65;;;;;;;;;;4942171;28;20059;-67
2022/09/15 11:49:39;;;;;;;28.42;12.05;;;;;;;;;;4959550;28;20163;-67
2022/09/15 11:52:15;;;;;;;30.13;11.35;;;;;;;;;;4943384;28;20051;-67
2022/09/15 11:54:45;;;;;;;27.85;11.57;;;;;;;;;;4944107;28;20039;-67
2022/09/15 11:57:28;;;;;;;34.70;12.43;;;;;;;;;;4941674;28;20042;-68
2022/09/15 11:59:58;;;;;;;23.70;12.18;;;;;;;;;;4941866;28;20044;-67
2022/09/15 12:02:40;;;;;;;29.70;12.65;;;;;;;;;;4941011;28;20043;-67
2022/09/15 12:05:10;;;;;;;33.70;12.65;;;;;;;;;;4942295;28;20584;-67
2022/09/15 12:07:59;;;;;;;29.70;12.02;;;;;;;;;;4939277;28;20066;-68
2022/09/15 12:10:31;;;;;;;27.67;12.98;;;;;;;;;;4940873;28;20047;-67
2022/09/15 12:12:59;;;;;;;32.70;12.50;;;;;;;;;;4958134;28;20579;-68
2022/09/15 12:15:26;;;;;;;27.88;12.18;;;;;;;;;;4942641;28;20197;-68
2022/09/15 12:17:52;;;;;;;26.67;12.30;;;;;;;;;;4952886;28;20043;-67
2022/09/15 12:20:28;;;;;;;28.65;11.35;;;;;;;;;;4940895;28;20077;-67
2022/09/15 12:22:58;;;;;;;26.67;12.90;;;;;;;;;;4942371;28;20048;-66
2022/09/15 12:25:28;;;;;;;26.63;12.73;;;;;;;;;;4939255;28;20046;-66
2022/09/15 12:28:13;;;;;;;28.80;13.02;;;;;;;;;;4939373;28;20038;-68
2022/09/15 12:30:41;;;;;;;27.23;12.95;;;;;;;;;;4940309;28;20039;-67
2022/09/15 12:33:26;;;;;;;32.08;13.40;;;;;;;;;;4939335;28;20039;-66
2022/09/15 12:35:53;;;;;;;28.30;13.52;;;;;;;;;;4952978;28;20080;-66
2022/09/15 12:38:22;;;;;;;28.40;13.25;;;;;;;;;;4941159;28;20050;-65
2022/09/15 12:40:57;;;;;;;27.95;12.15;;;;;;;;;;4944983;28;20047;-64
2022/09/15 12:43:25;;;;;;;34.95;14.45;;;;;;;;;;4946133;28;20061;-64
2022/09/15 12:45:56;;;;;;;38.80;14.23;;;;;;;;;;4950989;28;20034;-65
2022/09/15 12:48:32;;;;;;;29.85;14.07;;;;;;;;;;4957241;28;20591;-65
2022/09/15 12:51:09;;;;;;;27.65;13.10;;;;;;;;;;4946592;28;21852;-63
2022/09/15 12:53:53;;;;;;;37.55;15.02;;;;;;;;;;4943041;28;20053;-64
2022/09/15 12:56:24;;;;;;;32.88;14.55;;;;;;;;;;4941110;28;20047;-66
2022/09/15 12:58:52;;;;;;;26.83;14.02;;;;;;;;;;4942827;28;20073;-65
2022/09/15 13:01:19;;;;;;;36.22;15.05;;;;;;;;;;4945658;28;20043;-65
2022/09/15 13:03:47;;;;;;;30.00;14.18;;;;;;;;;;4941574;28;20111;-65
2022/09/15 13:06:23;;;;;;;46.53;15.38;;;;;;;;;;4946233;28;20106;-64
2022/09/15 13:08:54;;;;;;;35.83;15.30;;;;;;;;;;4942636;28;20054;-65
2022/09/15 13:11:35;;;;;;;32.80;15.48;;;;;;;;;;4945891;28;20051;-65
2022/09/15 13:14:13;;;;;;;35.80;15.70;;;;;;;;;;4943369;28;20038;-63
2022/09/15 13:16:43;;;;;;;43.13;16.40;;;;;;;;;;4942995;28;20453;-62
2022/09/15 13:19:28;;;;;;;29.10;15.50;;;;;;;;;;4944217;28;20089;-64
2022/09/15 13:21:58;;;;;;;33.40;15.85;;;;;;;;;;4942324;28;20049;-64
2022/09/15 13:24:30;;;;;;;36.75;14.93;;;;;;;;;;4944692;28;20039;-64
2022/09/15 13:26:57;;;;;;;41.25;15.27;;;;;;;;;;4942193;28;20590;-64
2022/09/15 13:29:25;;;;;;;34.45;15.40;;;;;;;;;;4943093;28;20697;-64
2022/09/15 13:32:05;;;;;;;35.35;17.63;;;;;;;;;;4942702;28;20043;-65
2022/09/15 13:34:34;;;;;;;35.63;15.65;;;;;;;;;;4943039;28;20039;-65
2022/09/15 13:37:07;;;;;;;39.00;17.50;;;;;;;;;;4940807;28;20505;-65
2022/09/15 13:39:58;;;;;;;30.55;15.73;;;;;;;;;;4940617;28;20042;-65
2022/09/15 13:42:40;;;;;;;34.63;16.42;;;;;;;;;;4938685;28;20089;-66
2022/09/15 13:45:27;;;;;;;38.60;16.15;;;;;;;;;;4940973;28;20654;-66
2022/09/15 13:48:06;;;;;;;39.10;16.58;;;;;;;;;;4941503;28;20047;-66
2022/09/15 13:50:38;;;;;;;33.83;15.43;;;;;;;;;;4954513;28;20067;-66
2022/09/15 13:53:24;;;;;;;44.05;15.82;;;;;;;;;;4943708;28;20549;-66
2022/09/15 13:55:53;;;;;;;33.20;15.68;;;;;;;;;;4945120;28;20114;-64
2022/09/15 13:58:20;;;;;;;41.35;16.58;;;;;;;;;;4941839;28;20047;-65
2022/09/15 14:00:53;;;;;;;40.72;16.52;;;;;;;;;;4944365;28;20503;-64
2022/09/15 14:03:55;;;;;;;34.85;16.73;;;;;;;;;;4955874;28;20209;-64
2022/09/15 14:06:32;;;;;;;34.17;17.13;;;;;;;;;;4953703;28;20564;-65
2022/09/15 14:09:03;;;;;;;38.33;15.05;;;;;;;;;;4945756;28;20036;-65
2022/09/15 14:11:31;;;;;;;35.53;15.95;;;;;;;;;;4954441;28;20055;-65
2022/09/15 14:13:59;;;;;;;36.25;16.25;;;;;;;;;;4942815;28;20051;-64
2022/09/15 14:16:28;;;;;;;33.60;16.05;;;;;;;;;;4941519;28;20059;-64
2022/09/15 14:18:57;;;;;;;39.47;16.17;;;;;;;;;;4955627;28;20039;-66
2022/09/15 14:21:25;;;;;;;29.70;14.98;;;;;;;;;;4943997;28;20075;-65
2022/09/15 14:23:56;;;;;;;25.98;14.35;;;;;;;;;;4943910;28;20070;-65
2022/09/15 14:26:27;;;;;;;36.05;14.82;;;;;;;;;;4942538;28;20395;-65
2022/09/15 14:28:58;;;;;;;30.35;15.70;;;;;;;;;;4944964;28;20049;-64
2022/09/15 14:31:28;;;;;;;33.42;16.15;;;;;;;;;;4946044;28;20483;-64
2022/09/15 14:33:55;;;;;;;45.53;16.90;;;;;;;;;;4944683;28;20070;-64
2022/09/15 14:36:24;;;;;;;31.38;16.00;;;;;;;;;;4943943;28;20047;-64
2022/09/15 14:39:07;;;;;;;39.40;16.50;;;;;;;;;;4943131;28;20055;-67
2022/09/15 14:41:35;;;;;;;37.20;17.25;;;;;;;;;;4940216;28;20086;-66
2022/09/15 14:44:02;;;;;;;40.10;17.10;;;;;;;;;;4941797;28;20074;-64